createdAt,value
2023-02-16T00:00:53.909Z,103104.06
2023-02-16T00:05:56.141Z,103104.06
2023-02-16T00:11:16.759Z,103107.63
2023-02-16T00:16:24.974Z,103104.06
2023-02-16T00:21:28.646Z,103100.56
2023-02-16T00:26:34.089Z,103098.75
2023-02-16T00:31:36.317Z,103097.88
2023-02-16T00:36:38.509Z,103104.03
2023-02-16T00:41:52.448Z,103096.13
2023-02-16T00:46:55.673Z,103095.22
2023-02-16T00:51:58.307Z,103093.50
2023-02-16T00:57:00.797Z,103088.22
2023-02-16T01:02:02.906Z,103094.34
2023-02-16T01:07:34.755Z,103099.66
2023-02-16T01:12:36.879Z,103083.03
2023-02-16T01:17:41.167Z,103072.66
2023-02-16T01:22:43.404Z,103090.94
2023-02-16T01:27:45.912Z,103082.97
2023-02-16T01:32:52.026Z,103086.47
2023-02-16T01:37:54.804Z,103080.34
2023-02-16T01:43:15.074Z,103085.63
2023-02-16T01:48:37.416Z,103079.47
2023-02-16T01:53:42.715Z,103077.75
2023-02-16T01:58:50.529Z,103068.09
2023-02-16T02:04:11.298Z,103062.13
2023-02-16T02:09:37.981Z,103081.28
2023-02-16T02:14:41.077Z,103080.41
2023-02-16T02:19:47.166Z,103068.13
2023-02-16T02:25:06.291Z,103061.03
2023-02-16T02:30:12.661Z,103050.47
2023-02-16T02:35:17.945Z,103052.19
2023-02-16T02:40:43.518Z,103043.47
2023-02-16T02:45:55.550Z,103036.47
2023-02-16T02:51:28.245Z,103035.56
2023-02-16T02:56:51.796Z,103031.28
2023-02-16T03:01:59.352Z,103030.41
2023-02-16T03:07:03.444Z,103025.09
2023-02-16T03:12:27.405Z,103023.34
2023-02-16T03:17:56.125Z,103020.69
2023-02-16T03:23:17.957Z,103019.81
2023-02-16T03:28:41.299Z,103010.13
2023-02-16T03:33:43.909Z,103018.94
2023-02-16T03:38:46.057Z,103009.28
2023-02-16T03:43:48.372Z,103019.84
2023-02-16T03:48:50.466Z,103019.00
2023-02-16T03:53:52.641Z,103021.59
2023-02-16T03:58:54.814Z,103019.00
2023-02-16T04:03:57.178Z,103022.50
2023-02-16T04:08:59.328Z,103033.00
2023-02-16T04:14:01.571Z,103042.66
2023-02-16T04:19:03.765Z,103031.28
2023-02-16T04:24:06.367Z,103035.63
2023-02-16T04:29:08.409Z,103039.16
2023-02-16T04:34:10.560Z,103040.94
2023-02-16T04:39:12.732Z,103035.66
2023-02-16T04:44:14.906Z,103038.31
2023-02-16T04:49:17.120Z,103033.00
2023-02-16T04:54:19.364Z,103031.25
2023-02-16T04:59:21.443Z,103028.59
2023-02-16T05:04:25.002Z,103034.75
2023-02-16T05:09:27.109Z,103032.09
2023-02-16T05:14:48.023Z,103038.25
2023-02-16T05:19:53.278Z,103022.63
2023-02-16T05:24:55.384Z,103046.19
2023-02-16T05:29:58.486Z,103037.44
2023-02-16T05:35:00.632Z,103045.34
2023-02-16T05:40:02.726Z,103049.72
2023-02-16T05:45:05.144Z,103050.63
2023-02-16T05:50:07.974Z,103048.84
2023-02-16T05:55:10.130Z,103051.44
2023-02-16T06:00:12.991Z,103067.22
2023-02-16T06:05:15.235Z,103070.78
2023-02-16T06:10:18.190Z,103074.25
2023-02-16T06:15:20.338Z,103081.28
2023-02-16T06:20:22.405Z,103091.84
2023-02-16T06:25:24.719Z,103088.34
2023-02-16T06:30:27.405Z,103096.28
2023-02-16T06:35:29.581Z,103096.25
2023-02-16T06:40:31.742Z,103096.25
2023-02-16T06:45:34.105Z,103100.63
2023-02-16T06:50:36.418Z,103103.25
2023-02-16T06:55:38.594Z,103099.75
2023-02-16T07:00:40.748Z,103105.03
2023-02-16T07:05:44.318Z,103107.66
2023-02-16T07:10:50.141Z,103115.53
2023-02-16T07:15:52.509Z,103131.34
2023-02-16T07:20:54.809Z,103140.16
2023-02-16T07:25:56.913Z,103144.56
2023-02-16T07:30:59.196Z,103149.84
2023-02-16T07:36:01.405Z,103148.06
2023-02-16T07:41:05.723Z,103149.91
2023-02-16T07:46:09.324Z,103159.50
2023-02-16T07:51:11.488Z,103148.06
2023-02-16T07:56:21.451Z,103155.97
2023-02-16T08:01:23.955Z,103158.63
2023-02-16T08:06:26.295Z,103159.50
2023-02-16T08:11:28.472Z,103171.81
2023-02-16T08:16:30.757Z,103185.84
2023-02-16T08:21:34.654Z,103191.13
2023-02-16T08:26:39.886Z,103194.63
2023-02-16T08:31:42.301Z,103210.38
2023-02-16T08:36:46.277Z,103207.81
2023-02-16T08:41:50.010Z,103202.59
2023-02-16T08:46:55.153Z,103206.94
2023-02-16T08:51:59.040Z,103208.69
2023-02-16T08:57:03.197Z,103211.34
2023-02-16T09:02:06.138Z,103218.31
2023-02-16T09:07:08.244Z,103214.78
2023-02-16T09:12:10.453Z,103222.72
2023-02-16T09:17:12.532Z,103227.13
2023-02-16T09:22:15.476Z,103224.47
2023-02-16T09:27:18.306Z,103227.13
2023-02-16T09:32:20.421Z,103228.00
2023-02-16T09:37:22.657Z,103226.22
2023-02-16T09:42:30.909Z,103239.38
2023-02-16T09:47:37.348Z,103237.59
2023-02-16T09:52:44.623Z,103235.00
2023-02-16T09:57:57.241Z,103232.38
2023-02-16T10:03:21.536Z,103235.88
2023-02-16T10:08:28.622Z,103235.00
2023-02-16T10:14:00.827Z,103240.25
2023-02-16T10:19:21.857Z,103236.88
2023-02-16T10:24:27.526Z,103254.31
2023-02-16T10:29:29.760Z,103247.28
2023-02-16T10:34:50.078Z,103249.03
2023-02-16T10:40:10.873Z,103244.66
2023-02-16T10:45:24.781Z,103239.34
2023-02-16T10:50:42.252Z,103242.81
2023-02-16T10:55:44.620Z,103248.94
2023-02-16T11:01:04.294Z,103236.66
2023-02-16T11:06:36.504Z,103235.78
2023-02-16T11:11:41.325Z,103234.91
2023-02-16T11:16:43.633Z,103231.41
2023-02-16T11:21:58.966Z,103229.66
2023-02-16T11:27:13.112Z,103223.47
2023-02-16T11:32:18.393Z,103219.94
2023-02-16T11:37:33.392Z,103217.34
2023-02-16T11:42:40.809Z,103212.06
2023-02-16T11:47:43.367Z,103215.56
2023-02-16T11:52:53.627Z,103208.53
2023-02-16T11:57:57.202Z,103202.41
2023-02-16T12:03:11.176Z,103189.22
2023-02-16T12:08:48.543Z,103194.50
2023-02-16T12:14:02.468Z,103192.72
2023-02-16T12:19:32.470Z,103183.06
2023-02-16T12:24:42.999Z,103183.94
2023-02-16T12:30:03.846Z,103174.28
2023-02-16T12:35:14.729Z,103168.94
2023-02-16T12:40:32.495Z,103165.44
2023-02-16T12:45:43.313Z,103163.66
2023-02-16T12:50:48.881Z,103147.88
2023-02-16T12:55:56.623Z,103153.13
2023-02-16T13:01:05.069Z,103146.13
2023-02-16T13:06:44.895Z,103133.88
2023-02-16T13:11:56.746Z,103130.28
2023-02-16T13:17:23.481Z,103123.25
2023-02-16T13:22:28.490Z,103129.41
2023-02-16T13:27:49.205Z,103122.38
2023-02-16T13:32:54.225Z,103121.47
2023-02-16T13:38:32.064Z,103121.50
2023-02-16T13:43:34.181Z,103118.84
2023-02-16T13:48:47.629Z,103124.03
2023-02-16T13:54:03.708Z,103119.69
2023-02-16T13:59:18.767Z,103121.44
2023-02-16T14:04:23.788Z,103109.16
2023-02-16T14:09:38.168Z,103110.94
2023-02-16T14:14:43.078Z,103107.44
2023-02-16T14:20:06.614Z,103104.81
2023-02-16T14:25:22.392Z,103112.66
2023-02-16T14:30:44.761Z,103117.91
2023-02-16T14:35:58.896Z,103117.94
2023-02-16T14:41:08.178Z,103118.81
2023-02-16T14:46:22.293Z,103104.78
2023-02-16T14:51:52.132Z,103110.91
2023-02-16T14:57:23.738Z,103110.00
2023-02-16T15:02:39.836Z,103105.56
2023-02-16T15:07:42.255Z,103106.44
2023-02-16T15:12:45.023Z,103100.38
2023-02-16T15:17:49.660Z,103109.97
2023-02-16T15:22:54.981Z,103108.19
2023-02-16T15:28:00.550Z,103115.22
2023-02-16T15:33:14.361Z,103109.94
2023-02-16T15:38:23.263Z,103109.03
2023-02-16T15:43:32.601Z,103111.66
2023-02-16T15:48:39.069Z,103110.81
2023-02-16T15:54:01.158Z,103112.59
2023-02-16T15:59:30.598Z,103116.09
2023-02-16T16:04:38.887Z,103112.59
2023-02-16T16:09:42.683Z,103125.69
2023-02-16T16:14:55.493Z,103114.28
2023-02-16T16:20:17.479Z,103116.06
2023-02-16T16:25:30.558Z,103119.56
2023-02-16T16:30:39.765Z,103118.72
2023-02-16T16:35:44.938Z,103127.50
2023-02-16T16:41:01.285Z,103122.22
2023-02-16T16:46:21.047Z,103137.91
2023-02-16T16:51:29.322Z,103130.91
2023-02-16T16:56:36.217Z,103139.69
2023-02-16T17:01:38.410Z,103134.44
2023-02-16T17:06:40.520Z,103147.63
2023-02-16T17:11:42.727Z,103138.81
2023-02-16T17:16:47.812Z,103137.06
2023-02-16T17:21:50.257Z,103153.72
2023-02-16T17:26:52.504Z,103145.78
2023-02-16T17:31:54.682Z,103152.84
2023-02-16T17:37:03.177Z,103151.09
2023-02-16T17:42:07.737Z,103159.88
2023-02-16T17:47:17.055Z,103165.16
2023-02-16T17:52:19.142Z,103172.19
2023-02-16T17:57:21.353Z,103170.41
2023-02-16T18:02:23.483Z,103187.06
2023-02-16T18:07:25.716Z,103193.22
2023-02-16T18:12:28.552Z,103192.38
2023-02-16T18:17:30.787Z,103195.03
2023-02-16T18:22:32.992Z,103198.53
2023-02-16T18:27:35.279Z,103216.09
2023-02-16T18:32:37.536Z,103213.44
2023-02-16T18:37:39.781Z,103218.69
2023-02-16T18:42:42.125Z,103216.94
2023-02-16T18:47:47.532Z,103231.88
2023-02-16T18:52:49.694Z,103222.22
2023-02-16T18:57:51.785Z,103228.38
2023-02-16T19:02:55.492Z,103231.00
2023-02-16T19:07:57.667Z,103236.28
2023-02-16T19:13:01.309Z,103238.84
2023-02-16T19:18:04.451Z,103238.03
2023-02-16T19:23:06.697Z,103238.03
2023-02-16T19:28:08.883Z,103238.03
2023-02-16T19:33:10.998Z,103238.03
2023-02-16T19:38:13.080Z,103238.03
2023-02-16T19:43:15.152Z,103240.66
2023-02-16T19:48:17.856Z,103246.75
2023-02-16T19:53:19.930Z,103252.00
2023-02-16T19:58:23.125Z,103264.31
2023-02-16T20:03:25.262Z,103254.72
2023-02-16T20:08:27.338Z,103264.38
2023-02-16T20:13:29.492Z,103265.28
2023-02-16T20:18:32.348Z,103268.81
2023-02-16T20:23:35.735Z,103272.28
2023-02-16T20:28:38.137Z,103276.59
2023-02-16T20:33:40.473Z,103273.16
2023-02-16T20:38:42.594Z,103267.00
2023-02-16T20:43:45.006Z,103269.66
2023-02-16T20:48:50.140Z,103273.19
2023-02-16T20:53:52.363Z,103274.06
2023-02-16T20:58:56.673Z,103272.28
2023-02-16T21:04:00.356Z,103276.66
2023-02-16T21:09:03.166Z,103276.69
2023-02-16T21:14:06.606Z,103272.28
2023-02-16T21:19:17.529Z,103269.66
2023-02-16T21:24:23.415Z,103266.16
2023-02-16T21:29:25.537Z,103263.47
2023-02-16T21:34:27.838Z,103265.25
2023-02-16T21:39:48.300Z,103264.31
2023-02-16T21:45:10.344Z,103265.25
2023-02-16T21:50:12.414Z,103269.66
2023-02-16T21:55:33.112Z,103269.66
2023-02-16T22:00:36.157Z,103269.66
2023-02-16T22:05:38.440Z,103267.88
2023-02-16T22:10:40.826Z,103268.69
2023-02-16T22:15:42.937Z,103267.88
2023-02-16T22:20:45.235Z,103272.28
2023-02-16T22:25:47.441Z,103273.19
2023-02-16T22:30:49.555Z,103274.94
2023-02-16T22:35:51.664Z,103274.94
2023-02-16T22:40:53.755Z,103278.44
2023-02-16T22:45:55.939Z,103277.50
2023-02-16T22:51:02.552Z,103276.59
2023-02-16T22:56:10.327Z,103274.88
2023-02-16T23:01:18.751Z,103264.38
2023-02-16T23:06:24.103Z,103267.91
2023-02-16T23:11:27.962Z,103270.53
2023-02-16T23:16:30.303Z,103261.03
2023-02-16T23:21:33.470Z,103268.75
2023-02-16T23:26:35.629Z,103276.66
2023-02-16T23:31:40.154Z,103256.63
2023-02-16T23:36:42.710Z,103272.31
2023-02-16T23:41:45.592Z,103272.31
2023-02-16T23:46:47.848Z,103256.63
2023-02-16T23:51:50.015Z,103274.06
2023-02-16T23:56:52.877Z,103268.75
